Time;durP1;ratioP1;P1;durP2;ratioP2;P2;SDS_P1;SDS_P2;PMS_P1;PMS_P2;Temp;Humidity;BMP_temperature;BMP_pressure;BME280_temperature;BME280_humidity;BME280_pressure;Samples;Min_cycle;Max_cycle;Signal;HPM_P1;HPM_P2
2023/05/25 00:00:01;;;;;;;25.60;9.50;;;;;;;-128.00;-1.00;-1.00;18919;293;7505344;-35
2023/05/25 00:02:27;;;;;;;12.00;7.40;;;;;;;-128.00;-1.00;-1.00;18507;293;7504736;-32
2023/05/25 00:04:53;;;;;;;11.60;6.90;;;;;;;-128.00;-1.00;-1.00;18493;293;7504701;-37
2023/05/25 00:07:19;;;;;;;18.70;8.20;;;;;;;-128.00;-1.00;-1.00;18927;293;7505294;-35
2023/05/25 00:09:45;;;;;;;13.10;7.80;;;;;;;-128.00;-1.00;-1.00;18903;339;7504356;-36
2023/05/25 00:12:12;;;;;;;11.40;8.50;;;;;;;-128.00;-1.00;-1.00;18918;293;7504745;-36
2023/05/25 00:14:38;;;;;;;9.60;7.20;;;;;;;-128.00;-1.00;-1.00;18512;286;7504500;-32
2023/05/25 00:17:04;;;;;;;12.80;7.30;;;;;;;-128.00;-1.00;-1.00;18897;345;7504381;-32
2023/05/25 00:19:33;;;;;;;17.50;7.10;;;;;;;-128.00;-1.00;-1.00;18877;295;7504831;-33
2023/05/25 00:22:02;;;;;;;16.30;7.60;;;;;;;-128.00;-1.00;-1.00;18527;293;7504544;-32
2023/05/25 00:24:29;;;;;;;11.00;7.00;;;;;;;-128.00;-1.00;-1.00;18503;293;7507402;-36
2023/05/25 00:26:56;;;;;;;12.90;7.00;;;;;;;-128.00;-1.00;-1.00;18515;294;7505949;-31
2023/05/25 00:29:22;;;;;;;12.60;6.80;;;;;;;-128.00;-1.00;-1.00;18528;345;7505392;-32
2023/05/25 00:31:49;;;;;;;8.00;6.50;;;;;;;-128.00;-1.00;-1.00;18486;295;7505089;-33
2023/05/25 00:34:15;;;;;;;7.60;6.00;;;;;;;-128.00;-1.00;-1.00;18522;294;7505192;-36
2023/05/25 00:36:42;;;;;;;11.20;7.20;;;;;;;-128.00;-1.00;-1.00;18503;282;7505796;-32
2023/05/25 00:39:08;;;;;;;9.10;6.10;;;;;;;-128.00;-1.00;-1.00;18502;293;7504825;-36
2023/05/25 00:41:40;;;;;;;26.40;5.90;;;;;;;-128.00;-1.00;-1.00;18490;294;7507057;-36
2023/05/25 00:44:06;;;;;;;9.50;5.30;;;;;;;-128.00;-1.00;-1.00;18500;293;7504636;-36
2023/05/25 00:46:33;;;;;;;14.10;8.70;;;;;;;-128.00;-1.00;-1.00;18522;333;7505057;-31
2023/05/25 00:48:59;;;;;;;14.40;8.60;;;;;;;-128.00;-1.00;-1.00;18523;294;7504779;-31
2023/05/25 00:51:25;;;;;;;8.10;6.40;;;;;;;-128.00;-1.00;-1.00;18527;293;7504882;-31
2023/05/25 00:53:51;;;;;;;10.50;7.30;;;;;;;-128.00;-1.00;-1.00;18496;321;7505104;-32
2023/05/25 00:56:20;;;;;;;14.20;7.40;;;;;;;-128.00;-1.00;-1.00;18503;293;7505979;-36
2023/05/25 00:58:46;;;;;;;12.50;7.00;;;;;;;-128.00;-1.00;-1.00;18525;293;7507287;-36
2023/05/25 01:01:12;;;;;;;12.10;8.40;;;;;;;-128.00;-1.00;-1.00;18905;293;7504353;-31
2023/05/25 01:03:39;;;;;;;10.70;7.50;;;;;;;-128.00;-1.00;-1.00;18507;294;7506345;-31
2023/05/25 01:06:10;;;;;;;13.60;8.30;;;;;;;-128.00;-1.00;-1.00;18512;293;7505189;-32
2023/05/25 01:08:36;;;;;;;7.90;4.60;;;;;;;-128.00;-1.00;-1.00;18489;293;7505294;-31
2023/05/25 01:11:02;;;;;;;13.20;8.00;;;;;;;-128.00;-1.00;-1.00;18879;318;7504575;-31
2023/05/25 01:13:28;;;;;;;13.70;7.20;;;;;;;-128.00;-1.00;-1.00;18499;293;7505108;-34
2023/05/25 01:15:54;;;;;;;12.00;6.80;;;;;;;-128.00;-1.00;-1.00;18465;287;7504544;-32
2023/05/25 01:18:20;;;;;;;14.50;7.10;;;;;;;-128.00;-1.00;-1.00;18514;293;7505987;-31
2023/05/25 01:20:52;;;;;;;10.20;7.80;;;;;;;-128.00;-1.00;-1.00;18480;293;7505111;-32
2023/05/25 01:23:19;;;;;;;17.90;7.20;;;;;;;-128.00;-1.00;-1.00;18491;293;7504423;-32
2023/05/25 01:25:47;;;;;;;15.40;8.10;;;;;;;-128.00;-1.00;-1.00;18461;287;7504579;-36
2023/05/25 01:28:17;;;;;;;9.20;6.20;;;;;;;-128.00;-1.00;-1.00;18472;287;7505656;-36
2023/05/25 01:30:45;;;;;;;11.70;7.20;;;;;;;-128.00;-1.00;-1.00;18483;294;7504265;-32
2023/05/25 01:33:10;;;;;;;23.80;7.10;;;;;;;-128.00;-1.00;-1.00;18515;294;7504708;-36
2023/05/25 01:35:37;;;;;;;16.10;8.10;;;;;;;-128.00;-1.00;-1.00;18911;294;7505883;-36
2023/05/25 01:38:03;;;;;;;11.10;6.80;;;;;;;-128.00;-1.00;-1.00;18500;293;7504631;-31
2023/05/25 01:40:28;;;;;;;7.90;6.40;;;;;;;-128.00;-1.00;-1.00;18517;293;7504908;-34
2023/05/25 01:42:54;;;;;;;22.00;7.60;;;;;;;-128.00;-1.00;-1.00;18516;293;7504350;-31
2023/05/25 01:45:21;;;;;;;20.30;8.50;;;;;;;-128.00;-1.00;-1.00;18473;282;7506247;-31
2023/05/25 01:48:11;;;;;;;23.70;8.00;;;;;;;-128.00;-1.00;-1.00;18502;293;7504971;-35
2023/05/25 01:51:00;;;;;;;24.80;7.70;;;;;;;-128.00;-1.00;-1.00;18487;293;7504357;-31
2023/05/25 01:53:29;;;;;;;13.40;9.50;;;;;;;-128.00;-1.00;-1.00;18500;297;7504777;-35
2023/05/25 01:55:58;;;;;;;14.90;7.60;;;;;;;-128.00;-1.00;-1.00;18496;293;7504404;-32
2023/05/25 01:58:26;;;;;;;16.30;8.40;;;;;;;-128.00;-1.00;-1.00;18520;294;7504286;-31
2023/05/25 02:00:52;;;;;;;39.80;7.50;;;;;;;-128.00;-1.00;-1.00;18498;294;7504665;-36
2023/05/25 02:03:19;;;;;;;14.80;8.20;;;;;;;-128.00;-1.00;-1.00;18874;302;7504904;-33
2023/05/25 02:05:45;;;;;;;24.20;8.90;;;;;;;-128.00;-1.00;-1.00;18505;293;7504611;-31
2023/05/25 02:08:10;;;;;;;11.50;8.50;;;;;;;-128.00;-1.00;-1.00;18522;293;7504960;-35
2023/05/25 02:10:36;;;;;;;12.60;8.50;;;;;;;-128.00;-1.00;-1.00;18909;293;7505751;-31
2023/05/25 02:13:02;;;;;;;23.90;9.80;;;;;;;-128.00;-1.00;-1.00;18905;293;7504581;-35
2023/05/25 02:15:30;;;;;;;15.90;9.20;;;;;;;-128.00;-1.00;-1.00;18881;293;7505240;-32
2023/05/25 02:17:56;;;;;;;15.00;7.30;;;;;;;-128.00;-1.00;-1.00;18512;294;7505037;-35
2023/05/25 02:20:22;;;;;;;13.50;8.40;;;;;;;-128.00;-1.00;-1.00;18513;293;7505643;-36
2023/05/25 02:22:48;;;;;;;14.00;8.80;;;;;;;-128.00;-1.00;-1.00;18471;294;7505933;-32
2023/05/25 02:25:14;;;;;;;15.30;10.00;;;;;;;-128.00;-1.00;-1.00;18877;295;7504674;-33
2023/05/25 02:27:40;;;;;;;15.90;9.40;;;;;;;-128.00;-1.00;-1.00;18872;294;7504641;-35
2023/05/25 02:30:07;;;;;;;12.20;8.70;;;;;;;-128.00;-1.00;-1.00;18905;294;7504434;-33
2023/05/25 02:32:34;;;;;;;27.70;9.60;;;;;;;-128.00;-1.00;-1.00;18492;293;7506458;-31
2023/05/25 02:34:59;;;;;;;12.30;10.00;;;;;;;-128.00;-1.00;-1.00;18473;293;7506240;-31
2023/05/25 02:37:25;;;;;;;20.10;10.30;;;;;;;-128.00;-1.00;-1.00;18514;294;7504913;-33
2023/05/25 02:39:51;;;;;;;17.80;9.50;;;;;;;-128.00;-1.00;-1.00;18485;294;7504885;-33
2023/05/25 02:42:16;;;;;;;24.40;10.00;;;;;;;-128.00;-1.00;-1.00;18496;294;7506226;-32
2023/05/25 02:44:47;;;;;;;16.40;8.80;;;;;;;-128.00;-1.00;-1.00;18484;294;7504373;-36
2023/05/25 02:47:14;;;;;;;19.40;10.60;;;;;;;-128.00;-1.00;-1.00;18517;338;7506284;-36
2023/05/25 02:49:40;;;;;;;21.50;9.90;;;;;;;-128.00;-1.00;-1.00;18473;294;7505825;-33
2023/05/25 02:52:06;;;;;;;15.30;10.10;;;;;;;-128.00;-1.00;-1.00;18485;294;7504854;-36
2023/05/25 02:54:31;;;;;;;20.50;9.50;;;;;;;-128.00;-1.00;-1.00;18477;294;7507364;-36
2023/05/25 02:56:58;;;;;;;19.60;12.20;;;;;;;-128.00;-1.00;-1.00;18876;293;7505365;-32
2023/05/25 02:59:24;;;;;;;22.90;12.20;;;;;;;-128.00;-1.00;-1.00;18906;287;7504128;-35
2023/05/25 03:01:50;;;;;;;22.70;11.80;;;;;;;-128.00;-1.00;-1.00;18868;294;7504859;-32
2023/05/25 03:04:17;;;;;;;24.90;10.50;;;;;;;-128.00;-1.00;-1.00;18881;293;7504300;-36
2023/05/25 03:06:44;;;;;;;22.80;12.30;;;;;;;-128.00;-1.00;-1.00;18492;338;7504590;-32
2023/05/25 03:09:10;;;;;;;29.10;12.50;;;;;;;-128.00;-1.00;-1.00;18498;293;7505244;-37
2023/05/25 03:11:35;;;;;;;27.30;13.70;;;;;;;-128.00;-1.00;-1.00;18495;293;7506391;-36
2023/05/25 03:14:01;;;;;;;25.60;11.20;;;;;;;-128.00;-1.00;-1.00;18879;293;7504316;-35
2023/05/25 03:16:27;;;;;;;23.50;14.90;;;;;;;-128.00;-1.00;-1.00;18867;294;7504177;-32
2023/05/25 03:18:53;;;;;;;22.70;12.70;;;;;;;-128.00;-1.00;-1.00;18875;293;7504959;-35
2023/05/25 03:21:21;;;;;;;26.30;12.00;;;;;;;-128.00;-1.00;-1.00;18889;293;7504692;-36
2023/05/25 03:23:47;;;;;;;19.70;11.30;;;;;;;-128.00;-1.00;-1.00;18485;293;7504422;-32
2023/05/25 03:26:13;;;;;;;32.20;13.70;;;;;;;-128.00;-1.00;-1.00;18484;338;7505028;-31
2023/05/25 03:28:39;;;;;;;26.70;13.00;;;;;;;-128.00;-1.00;-1.00;18500;294;7506089;-35
2023/05/25 03:31:06;;;;;;;33.00;12.00;;;;;;;-128.00;-1.00;-1.00;18485;294;7506173;-33
2023/05/25 03:33:32;;;;;;;23.70;12.00;;;;;;;-128.00;-1.00;-1.00;18476;294;7506003;-35
2023/05/25 03:35:58;;;;;;;26.60;14.80;;;;;;;-128.00;-1.00;-1.00;18507;293;7504307;-32
2023/05/25 03:38:24;;;;;;;31.20;15.40;;;;;;;-128.00;-1.00;-1.00;18873;302;7505059;-32
2023/05/25 03:40:50;;;;;;;25.70;14.90;;;;;;;-128.00;-1.00;-1.00;18876;295;7504267;-36
2023/05/25 03:43:16;;;;;;;29.70;14.50;;;;;;;-128.00;-1.00;-1.00;18896;294;7505187;-35
2023/05/25 03:45:42;;;;;;;32.30;16.10;;;;;;;-128.00;-1.00;-1.00;18891;293;7504257;-35
2023/05/25 03:48:08;;;;;;;24.40;9.90;;;;;;;-128.00;-1.00;-1.00;18878;294;7504376;-32
2023/05/25 03:50:35;;;;;;;29.50;11.70;;;;;;;-128.00;-1.00;-1.00;18908;294;7504389;-32
2023/05/25 03:53:01;;;;;;;23.30;11.50;;;;;;;-128.00;-1.00;-1.00;18923;294;7506013;-36
2023/05/25 03:55:27;;;;;;;19.80;12.10;;;;;;;-128.00;-1.00;-1.00;18929;293;7505021;-36
2023/05/25 03:57:53;;;;;;;24.60;12.20;;;;;;;-128.00;-1.00;-1.00;18883;334;7505050;-32
2023/05/25 04:00:19;;;;;;;26.20;12.50;;;;;;;-128.00;-1.00;-1.00;18952;294;7504278;-32
2023/05/25 04:02:45;;;;;;;25.60;13.30;;;;;;;-128.00;-1.00;-1.00;18877;285;7504737;-35
2023/05/25 04:05:11;;;;;;;23.10;12.20;;;;;;;-128.00;-1.00;-1.00;18886;286;7504469;-35
2023/05/25 04:07:39;;;;;;;16.60;9.60;;;;;;;-128.00;-1.00;-1.00;18501;293;7506909;-35
2023/05/25 04:10:06;;;;;;;13.00;8.50;;;;;;;-128.00;-1.00;-1.00;18483;293;7505789;-31
2023/05/25 04:12:32;;;;;;;18.20;10.00;;;;;;;-128.00;-1.00;-1.00;18511;293;7504003;-32
2023/05/25 04:14:58;;;;;;;21.10;11.60;;;;;;;-128.00;-1.00;-1.00;18481;293;7505006;-33
2023/05/25 04:17:24;;;;;;;18.60;10.60;;;;;;;-128.00;-1.00;-1.00;18487;293;7504244;-37
2023/05/25 04:19:50;;;;;;;11.50;8.00;;;;;;;-128.00;-1.00;-1.00;18486;293;7507347;-35
2023/05/25 04:22:17;;;;;;;17.50;8.00;;;;;;;-128.00;-1.00;-1.00;18512;293;7505549;-36
2023/05/25 04:24:43;;;;;;;14.90;8.60;;;;;;;-128.00;-1.00;-1.00;18472;345;7504583;-35
2023/05/25 04:27:10;;;;;;;15.40;9.50;;;;;;;-128.00;-1.00;-1.00;18503;293;7507109;-32
2023/05/25 04:29:37;;;;;;;19.10;10.10;;;;;;;-128.00;-1.00;-1.00;18501;293;7505817;-32
2023/05/25 04:32:03;;;;;;;13.70;8.20;;;;;;;-128.00;-1.00;-1.00;18560;293;7504577;-36
2023/05/25 04:34:28;;;;;;;12.30;8.70;;;;;;;-128.00;-1.00;-1.00;18505;293;7505285;-32
2023/05/25 04:36:55;;;;;;;10.90;8.00;;;;;;;-128.00;-1.00;-1.00;18485;293;7504434;-35
2023/05/25 04:39:21;;;;;;;14.40;7.40;;;;;;;-128.00;-1.00;-1.00;18507;294;7505942;-35
2023/05/25 04:41:47;;;;;;;13.80;9.80;;;;;;;-128.00;-1.00;-1.00;18902;293;7504310;-37
2023/05/25 04:44:13;;;;;;;16.00;8.80;;;;;;;-128.00;-1.00;-1.00;18910;293;7504073;-34
2023/05/25 04:46:39;;;;;;;14.90;7.10;;;;;;;-128.00;-1.00;-1.00;18916;294;7504570;-34
2023/05/25 04:49:07;;;;;;;16.20;10.20;;;;;;;-128.00;-1.00;-1.00;18910;293;7504830;-34
2023/05/25 04:51:32;;;;;;;11.50;8.10;;;;;;;-128.00;-1.00;-1.00;18495;286;7506208;-31
2023/05/25 04:53:58;;;;;;;23.90;9.40;;;;;;;-128.00;-1.00;-1.00;18908;345;7504541;-35
2023/05/25 04:56:25;;;;;;;16.60;9.10;;;;;;;-128.00;-1.00;-1.00;18891;293;7504491;-35
2023/05/25 04:58:52;;;;;;;14.30;8.60;;;;;;;-128.00;-1.00;-1.00;18887;294;7504378;-31
2023/05/25 05:01:19;;;;;;;8.60;7.30;;;;;;;-128.00;-1.00;-1.00;18509;293;7504482;-31
2023/05/25 05:03:45;;;;;;;17.50;8.60;;;;;;;-128.00;-1.00;-1.00;18475;335;7504453;-32
2023/05/25 05:06:10;;;;;;;9.10;7.00;;;;;;;-128.00;-1.00;-1.00;18446;345;7504847;-31
2023/05/25 05:08:37;;;;;;;16.90;8.40;;;;;;;-128.00;-1.00;-1.00;18480;293;7504649;-34
2023/05/25 05:11:03;;;;;;;16.80;7.50;;;;;;;-128.00;-1.00;-1.00;18930;293;7504298;-35
2023/05/25 05:13:29;;;;;;;11.90;7.50;;;;;;;-128.00;-1.00;-1.00;18920;294;7506384;-36
2023/05/25 05:15:55;;;;;;;16.10;6.40;;;;;;;-128.00;-1.00;-1.00;18941;293;7505072;-32
2023/05/25 05:18:21;;;;;;;9.00;6.50;;;;;;;-128.00;-1.00;-1.00;18861;295;7504138;-35
2023/05/25 05:20:48;;;;;;;14.20;8.30;;;;;;;-128.00;-1.00;-1.00;18913;293;7504598;-36
2023/05/25 05:23:14;;;;;;;17.00;9.10;;;;;;;-128.00;-1.00;-1.00;18935;293;7504617;-33
2023/05/25 05:25:40;;;;;;;18.10;7.90;;;;;;;-128.00;-1.00;-1.00;18873;345;7505149;-33
2023/05/25 05:28:06;;;;;;;20.90;9.00;;;;;;;-128.00;-1.00;-1.00;18902;294;7504427;-36
2023/05/25 05:30:33;;;;;;;14.10;9.90;;;;;;;-128.00;-1.00;-1.00;18909;294;7504857;-36
2023/05/25 05:32:59;;;;;;;13.80;9.50;;;;;;;-128.00;-1.00;-1.00;18890;345;7504669;-35
2023/05/25 05:35:25;;;;;;;13.10;6.90;;;;;;;-128.00;-1.00;-1.00;18897;293;7505179;-32
2023/05/25 05:37:51;;;;;;;11.00;7.30;;;;;;;-128.00;-1.00;-1.00;18878;294;7504148;-36
2023/05/25 05:40:17;;;;;;;11.30;6.90;;;;;;;-128.00;-1.00;-1.00;18923;294;7504571;-36
2023/05/25 05:42:44;;;;;;;16.80;9.70;;;;;;;-128.00;-1.00;-1.00;18928;293;7506293;-30
2023/05/25 05:45:10;;;;;;;11.00;6.70;;;;;;;-128.00;-1.00;-1.00;18885;293;7504427;-32
2023/05/25 05:47:36;;;;;;;18.20;8.70;;;;;;;-128.00;-1.00;-1.00;18909;294;7505314;-36
2023/05/25 05:50:03;;;;;;;7.30;4.50;;;;;;;-128.00;-1.00;-1.00;18908;293;7504371;-35
2023/05/25 05:52:29;;;;;;;23.40;8.00;;;;;;;-128.00;-1.00;-1.00;18497;294;7504583;-31
2023/05/25 05:54:55;;;;;;;12.60;9.50;;;;;;;-128.00;-1.00;-1.00;18903;293;7505158;-36
2023/05/25 05:57:21;;;;;;;16.70;9.60;;;;;;;-128.00;-1.00;-1.00;18901;294;7504668;-35
2023/05/25 05:59:47;;;;;;;29.80;11.50;;;;;;;-128.00;-1.00;-1.00;18892;293;7505156;-34
2023/05/25 06:02:14;;;;;;;18.00;7.00;;;;;;;-128.00;-1.00;-1.00;18897;293;7505049;-35
2023/05/25 06:04:40;;;;;;;16.00;9.80;;;;;;;-128.00;-1.00;-1.00;18887;294;7504740;-35
2023/05/25 06:07:06;;;;;;;12.40;8.30;;;;;;;-128.00;-1.00;-1.00;18876;293;7504892;-32
2023/05/25 06:09:32;;;;;;;14.30;8.10;;;;;;;-128.00;-1.00;-1.00;18890;293;7504563;-32
2023/05/25 06:11:58;;;;;;;19.60;9.10;;;;;;;-128.00;-1.00;-1.00;18878;295;7504459;-33
2023/05/25 06:14:25;;;;;;;14.60;7.70;;;;;;;-128.00;-1.00;-1.00;18899;286;7504652;-33
2023/05/25 06:16:51;;;;;;;11.10;7.10;;;;;;;-128.00;-1.00;-1.00;18875;293;7505488;-31
2023/05/25 06:19:17;;;;;;;12.90;9.30;;;;;;;-128.00;-1.00;-1.00;18903;293;7504747;-32
2023/05/25 06:21:43;;;;;;;8.80;5.80;;;;;;;-128.00;-1.00;-1.00;18901;315;7504569;-35
2023/05/25 06:24:10;;;;;;;12.30;8.00;;;;;;;-128.00;-1.00;-1.00;18899;294;7505155;-35
2023/05/25 06:26:36;;;;;;;10.60;7.80;;;;;;;-128.00;-1.00;-1.00;18886;294;7504546;-32
2023/05/25 06:29:02;;;;;;;14.30;9.50;;;;;;;-128.00;-1.00;-1.00;18891;293;7505156;-35
2023/05/25 06:31:29;;;;;;;16.90;8.10;;;;;;;-128.00;-1.00;-1.00;18879;287;7504709;-35
2023/05/25 06:33:55;;;;;;;19.00;8.20;;;;;;;-128.00;-1.00;-1.00;18519;294;7504555;-35
2023/05/25 06:36:21;;;;;;;10.10;5.50;;;;;;;-128.00;-1.00;-1.00;18913;286;7504323;-31
2023/05/25 06:38:47;;;;;;;17.80;9.20;;;;;;;-128.00;-1.00;-1.00;18850;293;7504948;-34
2023/05/25 06:41:14;;;;;;;15.20;7.90;;;;;;;-128.00;-1.00;-1.00;18853;293;7505975;-31
2023/05/25 06:43:41;;;;;;;17.20;7.10;;;;;;;-128.00;-1.00;-1.00;18482;294;7504747;-35
2023/05/25 06:46:09;;;;;;;14.80;7.40;;;;;;;-128.00;-1.00;-1.00;18488;293;7505525;-37
2023/05/25 06:48:36;;;;;;;11.50;7.30;;;;;;;-128.00;-1.00;-1.00;18460;302;7505604;-37
2023/05/25 06:51:02;;;;;;;11.10;8.60;;;;;;;-128.00;-1.00;-1.00;18486;293;7507123;-35
2023/05/25 06:53:28;;;;;;;18.80;6.70;;;;;;;-128.00;-1.00;-1.00;18501;295;7504361;-35
2023/05/25 06:55:54;;;;;;;11.00;7.40;;;;;;;-128.00;-1.00;-1.00;18492;294;7506003;-35
2023/05/25 06:58:19;;;;;;;11.80;7.00;;;;;;;-128.00;-1.00;-1.00;18485;293;7504859;-31
2023/05/25 07:00:45;;;;;;;11.60;8.60;;;;;;;-128.00;-1.00;-1.00;18922;293;7505199;-33
2023/05/25 07:03:12;;;;;;;13.80;8.50;;;;;;;-128.00;-1.00;-1.00;18513;293;7505421;-31
2023/05/25 07:05:37;;;;;;;13.20;9.70;;;;;;;-128.00;-1.00;-1.00;18529;294;7506674;-32
2023/05/25 07:08:03;;;;;;;9.20;5.50;;;;;;;-128.00;-1.00;-1.00;18889;293;7504505;-32
2023/05/25 07:10:30;;;;;;;12.30;7.00;;;;;;;-128.00;-1.00;-1.00;18480;293;7504460;-32
2023/05/25 07:12:57;;;;;;;11.60;6.20;;;;;;;-128.00;-1.00;-1.00;18875;295;7504771;-33
2023/05/25 07:15:23;;;;;;;12.80;8.20;;;;;;;-128.00;-1.00;-1.00;18903;293;7506035;-35
2023/05/25 07:17:49;;;;;;;23.40;9.30;;;;;;;-128.00;-1.00;-1.00;18905;294;7504716;-35
2023/05/25 07:20:15;;;;;;;12.30;7.80;;;;;;;-128.00;-1.00;-1.00;18897;293;7506719;-36
2023/05/25 07:22:42;;;;;;;13.40;8.80;;;;;;;-128.00;-1.00;-1.00;18893;293;7504130;-35
2023/05/25 07:25:08;;;;;;;17.60;8.20;;;;;;;-128.00;-1.00;-1.00;18501;293;7504809;-32
2023/05/25 07:27:34;;;;;;;7.30;6.10;;;;;;;-128.00;-1.00;-1.00;18482;293;7504648;-31
2023/05/25 07:30:00;;;;;;;23.50;6.00;;;;;;;-128.00;-1.00;-1.00;18489;293;7504532;-31
2023/05/25 07:32:26;;;;;;;11.40;7.80;;;;;;;-128.00;-1.00;-1.00;18494;294;7504747;-34
2023/05/25 07:34:52;;;;;;;14.90;9.30;;;;;;;-128.00;-1.00;-1.00;18916;294;7505616;-32
2023/05/25 07:37:19;;;;;;;15.70;8.40;;;;;;;-128.00;-1.00;-1.00;18867;294;7504302;-36
2023/05/25 07:39:45;;;;;;;13.90;8.40;;;;;;;-128.00;-1.00;-1.00;18894;345;7504770;-31
2023/05/25 07:42:11;;;;;;;15.20;8.30;;;;;;;-128.00;-1.00;-1.00;18904;294;7504846;-31
2023/05/25 07:44:37;;;;;;;15.80;8.00;;;;;;;-128.00;-1.00;-1.00;18900;293;7504320;-31
2023/05/25 07:47:05;;;;;;;14.00;8.00;;;;;;;-128.00;-1.00;-1.00;18903;293;7505592;-36
2023/05/25 07:49:31;;;;;;;9.10;6.90;;;;;;;-128.00;-1.00;-1.00;18489;293;7504765;-36
2023/05/25 07:51:56;;;;;;;11.60;6.60;;;;;;;-128.00;-1.00;-1.00;18034;287;7505572;-36
2023/05/25 07:54:22;;;;;;;14.60;6.60;;;;;;;-128.00;-1.00;-1.00;18496;294;7504829;-32
2023/05/25 07:56:48;;;;;;;11.30;7.40;;;;;;;-128.00;-1.00;-1.00;18918;293;7504856;-35
2023/05/25 07:59:14;;;;;;;15.10;8.30;;;;;;;-128.00;-1.00;-1.00;18921;294;7504558;-36
2023/05/25 08:01:41;;;;;;;16.70;7.60;;;;;;;-128.00;-1.00;-1.00;18884;295;7504769;-35
2023/05/25 08:04:07;;;;;;;16.80;7.60;;;;;;;-128.00;-1.00;-1.00;18900;294;7504441;-35
2023/05/25 08:06:33;;;;;;;15.80;10.90;;;;;;;-128.00;-1.00;-1.00;18865;335;7504292;-35
2023/05/25 08:08:59;;;;;;;13.60;9.50;;;;;;;-128.00;-1.00;-1.00;18929;293;7504380;-35
2023/05/25 08:11:26;;;;;;;12.80;9.10;;;;;;;-128.00;-1.00;-1.00;18473;294;7505853;-32
2023/05/25 08:13:52;;;;;;;17.00;6.60;;;;;;;-128.00;-1.00;-1.00;18498;294;7504658;-32
2023/05/25 08:16:17;;;;;;;11.40;8.90;;;;;;;-128.00;-1.00;-1.00;18487;293;7504586;-32
2023/05/25 08:18:45;;;;;;;11.70;8.70;;;;;;;-128.00;-1.00;-1.00;18928;293;7504624;-35
2023/05/25 08:21:12;;;;;;;10.90;7.70;;;;;;;-128.00;-1.00;-1.00;18539;293;7506011;-31
2023/05/25 08:23:41;;;;;;;11.80;8.40;;;;;;;-128.00;-1.00;-1.00;18495;288;7506368;-31
2023/05/25 08:26:10;;;;;;;19.20;8.50;;;;;;;-128.00;-1.00;-1.00;18539;294;7504395;-32
2023/05/25 08:28:36;;;;;;;7.90;6.80;;;;;;;-128.00;-1.00;-1.00;18490;286;7505895;-31
2023/05/25 08:31:03;;;;;;;17.80;8.40;;;;;;;-128.00;-1.00;-1.00;18475;294;7505567;-35
2023/05/25 08:33:30;;;;;;;10.40;7.30;;;;;;;-128.00;-1.00;-1.00;18486;294;7504524;-35
2023/05/25 08:35:57;;;;;;;11.70;8.60;;;;;;;-128.00;-1.00;-1.00;18467;296;7505060;-35
2023/05/25 08:38:24;;;;;;;10.80;7.70;;;;;;;-128.00;-1.00;-1.00;18503;293;7505796;-31
2023/05/25 08:41:03;;;;;;;17.70;7.20;;;;;;;-128.00;-1.00;-1.00;18515;281;7504146;-36
2023/05/25 08:43:29;;;;;;;12.80;7.00;;;;;;;-128.00;-1.00;-1.00;18512;294;7504525;-36
2023/05/25 08:45:57;;;;;;;9.90;7.80;;;;;;;-128.00;-1.00;-1.00;18478;294;7504545;-38
2023/05/25 08:48:23;;;;;;;12.20;8.20;;;;;;;-128.00;-1.00;-1.00;18494;288;7504548;-34
2023/05/25 08:50:49;;;;;;;14.80;8.50;;;;;;;-128.00;-1.00;-1.00;18484;294;7505725;-31
2023/05/25 08:53:15;;;;;;;16.70;8.70;;;;;;;-128.00;-1.00;-1.00;18488;294;7504634;-34
2023/05/25 08:55:40;;;;;;;8.00;6.10;;;;;;;-128.00;-1.00;-1.00;18484;293;7504578;-35
2023/05/25 08:58:13;;;;;;;11.40;7.40;;;;;;;-128.00;-1.00;-1.00;18907;293;7505383;-33
2023/05/25 09:00:42;;;;;;;10.40;6.80;;;;;;;-128.00;-1.00;-1.00;18498;294;7504343;-35
2023/05/25 09:03:16;;;;;;;10.90;6.30;;;;;;;-128.00;-1.00;-1.00;18519;294;7505363;-37
2023/05/25 09:05:42;;;;;;;6.60;5.30;;;;;;;-128.00;-1.00;-1.00;18505;294;7504600;-31
2023/05/25 09:08:08;;;;;;;12.90;8.00;;;;;;;-128.00;-1.00;-1.00;18504;293;7504459;-35
2023/05/25 09:10:34;;;;;;;10.10;7.20;;;;;;;-128.00;-1.00;-1.00;18532;286;7504574;-31
2023/05/25 09:13:00;;;;;;;15.90;8.30;;;;;;;-128.00;-1.00;-1.00;18486;287;7504761;-35
2023/05/25 09:15:26;;;;;;;15.00;8.20;;;;;;;-128.00;-1.00;-1.00;18520;286;7507370;-33
2023/05/25 09:17:52;;;;;;;11.30;8.50;;;;;;;-128.00;-1.00;-1.00;18508;293;7504777;-33
2023/05/25 09:20:18;;;;;;;29.40;8.50;;;;;;;-128.00;-1.00;-1.00;18483;319;7505152;-36
2023/05/25 09:28:54;;;;;;;6.40;5.20;;;;;;;;;;100969;300;543495;-31
2023/05/25 09:31:20;;;;;;;11.10;6.40;;;;;;;;;;101019;302;22682;-30
2023/05/25 09:33:46;;;;;;;3.70;2.70;;;;;;;;;;101041;302;22594;-35
2023/05/25 09:36:13;;;;;;;8.40;5.90;;;;;;;;;;100946;302;22995;-30
2023/05/25 09:38:39;;;;;;;10.60;6.50;;;;;;;;;;101088;303;22579;-30
2023/05/25 09:41:05;;;;;;;8.50;6.00;;;;;;;;;;101112;302;24223;-32
2023/05/25 09:43:32;;;;;;;8.70;4.60;;;;;;;;;;100769;300;422132;-35
2023/05/25 09:45:58;;;;;;;13.80;6.60;;;;;;;;;;101077;289;22582;-30
2023/05/25 09:48:23;;;;;;;11.30;5.20;;;;;;;;;;101195;289;22583;-35
2023/05/25 09:50:49;;;;;;;8.40;4.70;;;;;;;;;;101133;289;22667;-34
2023/05/25 09:53:15;;;;;;;7.40;4.10;;;;;;;;;;101100;301;24203;-34
2023/05/25 09:55:40;;;;;;;9.60;5.10;;;;;;;;;;101361;289;22584;-34
2023/05/25 09:58:07;;;;;;;6.50;4.30;;;;;;;;;;101016;289;24043;-35
2023/05/25 10:00:32;;;;;;;10.70;5.50;;;;;;;;;;101322;299;22991;-30
2023/05/25 10:02:58;;;;;;;10.70;5.30;;;;;;;;;;101230;299;24072;-30
2023/05/25 10:05:24;;;;;;;7.50;5.90;;;;;;;;;;101383;299;22579;-30
2023/05/25 10:07:52;;;;;;;13.90;8.30;;;;;;;;;;101219;300;22588;-33
2023/05/25 10:10:17;;;;;;;11.20;6.70;;;;;;;;;;101277;299;22576;-30
2023/05/25 10:12:43;;;;;;;11.70;5.60;;;;;;;;;;101218;288;22826;-31
2023/05/25 10:15:13;;;;;;;9.30;8.00;;;;;;;;;;101215;299;22585;-35
2023/05/25 10:17:50;;;;;;;6.10;5.40;;;;;;;;;;101261;298;22583;-30
2023/05/25 10:20:16;;;;;;;17.60;6.80;;;;;;;;;;101233;298;22989;-32
2023/05/25 10:22:53;;;;;;;8.80;7.10;;;;;;;;;;101317;298;22754;-37
2023/05/25 10:25:39;;;;;;;11.40;6.40;;;;;;;;;;101381;298;22598;-35
2023/05/25 10:28:07;;;;;;;10.10;6.60;;;;;;;;;;101299;299;22888;-35
2023/05/25 10:30:33;;;;;;;15.00;7.40;;;;;;;;;;101352;288;24213;-31
2023/05/25 10:32:58;;;;;;;11.70;6.90;;;;;;;;;;101443;299;24117;-32
2023/05/25 10:35:23;;;;;;;6.30;3.80;;;;;;;;;;101262;299;24149;-31
2023/05/25 10:37:52;;;;;;;20.00;6.90;;;;;;;;;;101241;298;22676;-34
2023/05/25 10:40:18;;;;;;;10.00;4.30;;;;;;;;;;101417;300;24186;-30
2023/05/25 10:42:44;;;;;;;7.40;5.30;;;;;;;;;;101260;299;22600;-31
2023/05/25 10:45:10;;;;;;;14.80;5.10;;;;;;;;;;101074;288;22673;-30
2023/05/25 10:47:36;;;;;;;9.80;5.90;;;;;;;;;;101282;300;22574;-34
2023/05/25 10:50:03;;;;;;;13.20;6.70;;;;;;;;;;101272;300;22677;-30
2023/05/25 10:52:29;;;;;;;8.20;6.40;;;;;;;;;;101285;287;24077;-32
2023/05/25 10:54:56;;;;;;;11.30;6.50;;;;;;;;;;101271;300;22943;-31
2023/05/25 10:57:22;;;;;;;7.50;5.80;;;;;;;;;;101164;302;22994;-35
2023/05/25 10:59:49;;;;;;;8.30;5.60;;;;;;;;;;101296;299;24261;-34
2023/05/25 11:02:15;;;;;;;6.10;5.00;;;;;;;;;;101358;299;24148;-35
2023/05/25 11:45:25;;;;;;;11.20;7.40;;;;;;;-99.46;17.40;20021.06;30282;287;7507215;-31
2023/05/25 11:47:53;;;;;;;8.20;6.10;;;;;;;-128.00;-1.00;-1.00;20447;341;7505922;-31
2023/05/25 11:50:20;;;;;;;15.30;7.70;;;;;;;-128.00;-1.00;-1.00;18873;285;7504520;-35
2023/05/25 11:52:45;;;;;;;8.70;5.90;;;;;;;-128.00;-1.00;-1.00;18464;297;7504412;-36
2023/05/25 11:55:13;;;;;;;14.60;7.20;;;;;;;-128.00;-1.00;-1.00;18853;297;7505526;-33
2023/05/25 11:57:39;;;;;;;11.00;6.70;;;;;;;-128.00;-1.00;-1.00;18481;297;7504729;-36
2023/05/25 12:00:05;;;;;;;10.20;6.50;;;;;;;-128.00;-1.00;-1.00;18509;289;7506039;-36
2023/05/25 12:02:38;;;;;;;7.80;6.50;;;;;;;-128.00;-1.00;-1.00;18467;289;7505168;-32
2023/05/25 12:05:05;;;;;;;12.20;6.60;;;;;;;-128.00;-1.00;-1.00;18460;345;7505127;-36
2023/05/25 12:07:31;;;;;;;21.00;7.40;;;;;;;-128.00;-1.00;-1.00;18481;308;7505717;-32
2023/05/25 12:10:10;;;;;;;12.00;6.40;;;;;;;-128.00;-1.00;-1.00;18460;285;7504422;-35
2023/05/25 12:12:46;;;;;;;8.80;6.10;;;;;;;-128.00;-1.00;-1.00;18494;308;7504945;-31
2023/05/25 12:15:13;;;;;;;8.00;6.70;;;;;;;-128.00;-1.00;-1.00;18492;289;7504470;-35
2023/05/25 12:17:41;;;;;;;10.30;6.60;;;;;;;-128.00;-1.00;-1.00;18431;300;7504940;-31
2023/05/25 12:20:08;;;;;;;10.60;6.30;;;;;;;-128.00;-1.00;-1.00;18484;297;7504925;-36
2023/05/25 12:22:34;;;;;;;7.00;6.40;;;;;;;-128.00;-1.00;-1.00;18464;285;7506704;-32
2023/05/25 12:25:00;;;;;;;14.40;7.10;;;;;;;-128.00;-1.00;-1.00;18872;297;7505241;-32
2023/05/25 12:27:26;;;;;;;9.40;5.40;;;;;;;-128.00;-1.00;-1.00;18868;289;7504402;-35
2023/05/25 12:29:53;;;;;;;11.90;5.40;;;;;;;-128.00;-1.00;-1.00;18863;297;7504915;-36